createdAt,value
2018-12-07T00:00:32.430Z,1006.81
2018-12-07T00:01:32.430Z,1006.83
2018-12-07T00:02:32.421Z,1006.82
2018-12-07T00:03:32.458Z,1006.86
2018-12-07T00:04:32.415Z,1006.89
2018-12-07T00:05:32.397Z,1006.78
2018-12-07T00:06:32.418Z,1006.81
2018-12-07T00:07:32.390Z,1006.78
2018-12-07T00:08:32.393Z,1006.76
2018-12-07T00:09:32.402Z,1006.77
2018-12-07T00:10:32.384Z,1006.76
2018-12-07T00:11:32.371Z,1006.73
2018-12-07T00:12:32.364Z,1006.74
2018-12-07T00:13:32.383Z,1006.77
2018-12-07T00:14:32.395Z,1006.74
2018-12-07T00:15:32.373Z,1006.78
2018-12-07T00:16:32.375Z,1006.74
2018-12-07T00:17:32.371Z,1006.71
2018-12-07T00:18:32.341Z,1006.73
2018-12-07T00:19:32.361Z,1006.67
2018-12-07T00:20:32.349Z,1006.63
2018-12-07T00:21:32.345Z,1006.67
2018-12-07T00:22:32.327Z,1006.69
2018-12-07T00:23:32.337Z,1006.66
2018-12-07T00:24:32.333Z,1006.62
2018-12-07T00:25:32.331Z,1006.64
2018-12-07T00:26:32.325Z,1006.69
2018-12-07T00:27:32.310Z,1006.60
2018-12-07T00:28:32.319Z,1006.59
2018-12-07T00:29:32.287Z,1006.66
2018-12-07T00:30:32.312Z,1006.63
2018-12-07T00:31:32.293Z,1006.64
2018-12-07T00:32:32.286Z,1006.62
2018-12-07T00:33:32.289Z,1006.55
2018-12-07T00:34:32.294Z,1006.55
2018-12-07T00:35:32.263Z,1006.57
2018-12-07T00:36:32.269Z,1006.56
2018-12-07T00:37:32.260Z,1006.54
2018-12-07T00:38:32.251Z,1006.45
2018-12-07T00:39:32.245Z,1006.45
2018-12-07T00:40:32.240Z,1006.47
2018-12-07T00:41:32.246Z,1006.38
2018-12-07T00:42:32.238Z,1006.43
2018-12-07T00:43:32.240Z,1006.41
2018-12-07T00:44:32.209Z,1006.40
2018-12-07T00:45:32.229Z,1006.40
2018-12-07T00:46:32.226Z,1006.35
2018-12-07T00:47:32.206Z,1006.39
2018-12-07T00:48:32.223Z,1006.40
2018-12-07T00:49:32.186Z,1006.34
2018-12-07T00:50:32.219Z,1006.40
2018-12-07T00:51:32.188Z,1006.41
2018-12-07T00:52:32.188Z,1006.38
2018-12-07T00:53:32.190Z,1006.38
2018-12-07T00:54:32.170Z,1006.39
2018-12-07T00:55:32.169Z,1006.34
2018-12-07T00:56:32.174Z,1006.40
2018-12-07T00:57:32.163Z,1006.33
2018-12-07T00:58:32.152Z,1006.32
2018-12-07T00:59:32.159Z,1006.29
2018-12-07T01:00:32.168Z,1006.30
2018-12-07T01:01:32.158Z,1006.22
2018-12-07T01:02:32.151Z,1006.22
2018-12-07T01:03:32.145Z,1006.18
2018-12-07T01:04:32.127Z,1006.17
2018-12-07T01:05:32.129Z,1006.21
2018-12-07T01:06:32.129Z,1006.16
2018-12-07T01:07:32.214Z,1006.09
2018-12-07T01:08:32.129Z,1006.15
2018-12-07T01:09:32.130Z,1006.12
2018-12-07T01:10:32.129Z,1006.14
2018-12-07T01:11:32.102Z,1006.09
2018-12-07T01:12:32.099Z,1006.09
2018-12-07T01:13:32.097Z,1006.07
2018-12-07T01:14:32.080Z,1006.08
2018-12-07T01:15:32.103Z,1006.12
2018-12-07T01:16:32.062Z,1006.08
2018-12-07T01:17:32.107Z,1006.03
2018-12-07T01:18:32.087Z,1006.01
2018-12-07T01:19:32.059Z,1006.00
2018-12-07T01:20:32.112Z,1005.96
2018-12-07T01:21:32.099Z,1005.99
2018-12-07T01:22:32.106Z,1005.97
2018-12-07T01:23:32.107Z,1005.93
2018-12-07T01:24:32.029Z,1005.96
2018-12-07T01:25:32.031Z,1005.90
2018-12-07T01:26:32.028Z,1005.92
2018-12-07T01:27:32.033Z,1005.96
2018-12-07T01:28:32.047Z,1005.82
2018-12-07T01:29:32.026Z,1005.88
2018-12-07T01:30:32.009Z,1005.87
2018-12-07T01:31:32.042Z,1005.81
2018-12-07T01:32:32.010Z,1005.85
2018-12-07T01:33:31.993Z,1005.87
2018-12-07T01:34:32.018Z,1005.84
2018-12-07T01:35:32.033Z,1005.87
2018-12-07T01:36:32.030Z,1005.83
2018-12-07T01:37:32.033Z,1005.85
2018-12-07T01:38:31.976Z,1005.85
2018-12-07T01:39:31.984Z,1005.80
2018-12-07T01:40:32.016Z,1005.79
2018-12-07T01:41:32.018Z,1005.78
2018-12-07T01:42:32.033Z,1005.83
2018-12-07T01:43:32.007Z,1005.83
2018-12-07T01:44:31.959Z,1005.80
2018-12-07T01:45:31.988Z,1005.78
2018-12-07T01:46:31.969Z,1005.77
2018-12-07T01:47:31.992Z,1005.78
2018-12-07T01:48:31.947Z,1005.74
2018-12-07T01:49:31.958Z,1005.78
2018-12-07T01:50:31.931Z,1005.78
2018-12-07T01:51:31.928Z,1005.70
2018-12-07T01:52:31.907Z,1005.77
2018-12-07T01:53:31.897Z,1005.76
2018-12-07T01:54:32.001Z,1005.74
2018-12-07T01:55:31.995Z,1005.77
2018-12-07T01:56:31.968Z,1005.74
2018-12-07T01:57:31.952Z,1005.73
2018-12-07T01:58:31.867Z,1005.73
2018-12-07T01:59:31.864Z,1005.74
2018-12-07T02:00:31.965Z,1005.70
2018-12-07T02:01:31.862Z,1005.66
2018-12-07T02:02:31.871Z,1005.62
2018-12-07T02:03:31.846Z,1005.65
2018-12-07T02:04:31.927Z,1005.59
2018-12-07T02:05:31.822Z,1005.64
2018-12-07T02:06:31.827Z,1005.67
2018-12-07T02:07:31.912Z,1005.61
2018-12-07T02:08:31.838Z,1005.55
2018-12-07T02:09:31.904Z,1005.54
2018-12-07T02:10:31.810Z,1005.54
2018-12-07T02:11:31.844Z,1005.54
2018-12-07T02:12:31.861Z,1005.54
2018-12-07T02:13:31.857Z,1005.51
2018-12-07T02:14:31.957Z,1005.48
2018-12-07T02:15:31.833Z,1005.49
2018-12-07T02:16:31.847Z,1005.58
2018-12-07T02:17:31.787Z,1005.43
2018-12-07T02:18:31.793Z,1005.48
2018-12-07T02:19:31.785Z,1005.43
2018-12-07T02:20:31.790Z,1005.44
2018-12-07T02:21:31.759Z,1005.42
2018-12-07T02:22:31.748Z,1005.44
2018-12-07T02:23:31.750Z,1005.35
2018-12-07T02:24:31.740Z,1005.40
2018-12-07T02:25:31.765Z,1005.35
2018-12-07T02:26:31.743Z,1005.36
2018-12-07T02:27:31.747Z,1005.25
2018-12-07T02:28:31.738Z,1005.28
2018-12-07T02:29:31.723Z,1005.27
2018-12-07T02:30:31.720Z,1005.33
2018-12-07T02:31:31.723Z,1005.23
2018-12-07T02:32:31.716Z,1005.17
2018-12-07T02:33:31.713Z,1005.26
2018-12-07T02:34:31.688Z,1005.30
2018-12-07T02:35:31.693Z,1005.28
2018-12-07T02:36:31.696Z,1005.19
2018-12-07T02:37:31.688Z,1005.28
2018-12-07T02:38:31.677Z,1005.23
2018-12-07T02:39:31.688Z,1005.20
2018-12-07T02:40:31.674Z,1005.24
2018-12-07T02:41:31.681Z,1005.22
2018-12-07T02:42:31.688Z,1005.22
2018-12-07T02:43:31.659Z,1005.09
2018-12-07T02:44:31.672Z,1005.14
2018-12-07T02:45:31.649Z,1005.13
2018-12-07T02:46:31.639Z,1005.06
2018-12-07T02:47:31.645Z,1005.13
2018-12-07T02:48:31.671Z,1005.06
2018-12-07T02:49:31.636Z,1005.08
2018-12-07T02:50:31.628Z,1005.03
2018-12-07T02:51:31.611Z,1005.05
2018-12-07T02:52:31.620Z,1005.10
2018-12-07T02:53:31.618Z,1004.98
2018-12-07T02:54:31.612Z,1004.99
2018-12-07T02:55:31.587Z,1004.95
2018-12-07T02:56:31.587Z,1004.97
2018-12-07T02:57:31.600Z,1004.98
2018-12-07T02:58:31.579Z,1004.90
2018-12-07T02:59:31.573Z,1004.95
2018-12-07T03:00:31.573Z,1004.88
2018-12-07T03:01:31.583Z,1004.94
2018-12-07T03:02:31.571Z,1004.90
2018-12-07T03:03:33.061Z,1004.90
2018-12-07T03:04:31.577Z,1004.88
2018-12-07T03:05:31.571Z,1004.91
2018-12-07T03:06:31.545Z,1004.88
2018-12-07T03:07:31.561Z,1004.92
2018-12-07T03:08:31.539Z,1004.87
2018-12-07T03:09:31.517Z,1004.81
2018-12-07T03:10:32.444Z,1004.87
2018-12-07T03:11:31.528Z,1004.84
2018-12-07T03:12:31.543Z,1004.91
2018-12-07T03:13:31.507Z,1004.80
2018-12-07T03:14:31.525Z,1004.79
2018-12-07T03:15:31.508Z,1004.82
2018-12-07T03:16:31.508Z,1004.81
2018-12-07T03:17:31.501Z,1004.79
2018-12-07T03:18:31.498Z,1004.75
2018-12-07T03:19:31.476Z,1004.78
2018-12-07T03:20:31.559Z,1004.72
2018-12-07T03:21:31.475Z,1004.78
2018-12-07T03:22:31.495Z,1004.70
2018-12-07T03:23:31.457Z,1004.75
2018-12-07T03:24:31.449Z,1004.74
2018-12-07T03:25:31.439Z,1004.71
2018-12-07T03:26:31.432Z,1004.71
2018-12-07T03:27:31.442Z,1004.72
2018-12-07T03:28:31.447Z,1004.68
2018-12-07T03:29:31.429Z,1004.69
2018-12-07T03:30:31.434Z,1004.67
2018-12-07T03:31:33.496Z,1004.69
2018-12-07T03:32:33.448Z,1004.65
2018-12-07T03:33:33.476Z,1004.66
2018-12-07T03:34:33.432Z,1004.62
2018-12-07T03:35:33.005Z,1004.55
2018-12-07T03:36:32.900Z,1004.57
2018-12-07T03:37:33.457Z,1004.53
2018-12-07T03:38:33.370Z,1004.52
2018-12-07T03:39:33.005Z,1004.55
2018-12-07T03:40:33.646Z,1004.49
2018-12-07T03:41:32.968Z,1004.45
2018-12-07T03:42:33.650Z,1004.47
2018-12-07T03:43:33.009Z,1004.44
2018-12-07T03:44:33.760Z,1004.48
2018-12-07T03:45:33.509Z,1004.42
2018-12-07T03:46:33.000Z,1004.39
2018-12-07T03:47:33.112Z,1004.43
2018-12-07T03:48:33.977Z,1004.42
2018-12-07T03:49:33.436Z,1004.33
2018-12-07T03:50:33.587Z,1004.37
2018-12-07T03:51:32.959Z,1004.39
2018-12-07T03:52:34.878Z,1004.32
2018-12-07T03:53:33.001Z,1004.30
2018-12-07T03:54:33.724Z,1004.32
2018-12-07T03:55:31.338Z,1004.29
2018-12-07T03:56:33.066Z,1004.34
2018-12-07T03:57:32.428Z,1004.34
2018-12-07T03:58:32.478Z,1004.31
2018-12-07T03:59:33.010Z,1004.21
2018-12-07T04:00:35.398Z,1004.21
2018-12-07T04:01:33.022Z,1004.19
2018-12-07T04:02:32.998Z,1004.18
2018-12-07T04:03:32.983Z,1004.16
2018-12-07T04:04:33.035Z,1004.13
2018-12-07T04:05:31.368Z,1004.20
2018-12-07T04:06:33.033Z,1004.20
2018-12-07T04:07:32.993Z,1004.06
2018-12-07T04:08:33.102Z,1004.16
2018-12-07T04:09:32.486Z,1004.08
2018-12-07T04:10:31.409Z,1004.08
2018-12-07T04:11:33.016Z,1004.10
2018-12-07T04:12:33.422Z,1004.13
2018-12-07T04:13:32.994Z,1004.06
2018-12-07T04:14:32.991Z,1004.03
2018-12-07T04:15:31.248Z,1004.02
2018-12-07T04:16:32.979Z,1003.98
2018-12-07T04:17:32.999Z,1004.07
2018-12-07T04:18:33.004Z,1003.96
2018-12-07T04:19:32.986Z,1004.01
2018-12-07T04:20:31.239Z,1004.02
2018-12-07T04:21:33.153Z,1004.03
2018-12-07T04:22:32.930Z,1003.97
2018-12-07T04:23:33.057Z,1003.99
2018-12-07T04:24:32.977Z,1003.97
2018-12-07T04:25:32.738Z,1003.98
2018-12-07T04:26:33.076Z,1003.96
2018-12-07T04:27:33.392Z,1003.98
2018-12-07T04:28:32.808Z,1003.94
2018-12-07T04:29:33.297Z,1003.94
2018-12-07T04:30:33.450Z,1003.89
2018-12-07T04:31:32.559Z,1003.92
2018-12-07T04:32:32.913Z,1003.92
2018-12-07T04:33:33.063Z,1003.86
2018-12-07T04:34:33.015Z,1003.82
2018-12-07T04:35:33.029Z,1003.86
2018-12-07T04:36:31.185Z,1003.85
2018-12-07T04:37:32.914Z,1003.84
2018-12-07T04:38:34.977Z,1003.84
2018-12-07T04:39:31.114Z,1003.84
2018-12-07T04:40:33.090Z,1003.87
2018-12-07T04:41:33.983Z,1003.81
2018-12-07T04:42:32.518Z,1003.81
2018-12-07T04:43:33.011Z,1003.83
2018-12-07T04:44:33.046Z,1003.80
2018-12-07T04:45:32.935Z,1003.79
2018-12-07T04:46:32.774Z,1003.77
2018-12-07T04:47:32.753Z,1003.73
2018-12-07T04:48:32.609Z,1003.73
2018-12-07T04:49:33.169Z,1003.75
2018-12-07T04:50:33.279Z,1003.75
2018-12-07T04:51:32.550Z,1003.70
2018-12-07T04:52:33.456Z,1003.71
2018-12-07T04:53:32.263Z,1003.73
2018-12-07T04:54:32.883Z,1003.73
2018-12-07T04:55:32.779Z,1003.73
2018-12-07T04:56:33.671Z,1003.65
2018-12-07T04:57:31.034Z,1003.66
2018-12-07T04:58:33.492Z,1003.63
2018-12-07T04:59:35.026Z,1003.70
2018-12-07T05:00:33.265Z,1003.71
2018-12-07T05:01:32.583Z,1003.68
2018-12-07T05:02:32.585Z,1003.69
2018-12-07T05:03:33.148Z,1003.65
2018-12-07T05:04:32.969Z,1003.70
2018-12-07T05:05:33.014Z,1003.65
2018-12-07T05:06:32.994Z,1003.65
2018-12-07T05:07:33.049Z,1003.54
2018-12-07T05:08:35.479Z,1003.58
2018-12-07T05:09:32.449Z,1003.56
2018-12-07T05:10:33.054Z,1003.58
2018-12-07T05:11:33.059Z,1003.57
2018-12-07T05:12:32.970Z,1003.59
2018-12-07T05:13:32.910Z,1003.57
2018-12-07T05:14:32.975Z,1003.57
2018-12-07T05:15:32.758Z,1003.53
2018-12-07T05:16:33.081Z,1003.47
2018-12-07T05:17:32.447Z,1003.47
2018-12-07T05:18:32.548Z,1003.47
2018-12-07T05:19:32.574Z,1003.46
2018-12-07T05:20:32.499Z,1003.51
2018-12-07T05:21:32.557Z,1003.49
2018-12-07T05:22:32.195Z,1003.42
2018-12-07T05:23:32.542Z,1003.46
2018-12-07T05:24:34.485Z,1003.47
2018-12-07T05:25:33.007Z,1003.40
2018-12-07T05:26:32.924Z,1003.38
2018-12-07T05:27:33.000Z,1003.40
2018-12-07T05:28:32.544Z,1003.42
2018-12-07T05:29:32.834Z,1003.33
2018-12-07T05:30:33.046Z,1003.39
2018-12-07T05:31:32.268Z,1003.38
2018-12-07T05:32:32.938Z,1003.26
2018-12-07T05:33:32.772Z,1003.32
2018-12-07T05:34:32.996Z,1003.28
2018-12-07T05:35:32.450Z,1003.24
2018-12-07T05:36:32.792Z,1003.25
2018-12-07T05:37:33.257Z,1003.18
2018-12-07T05:38:33.064Z,1003.24
2018-12-07T05:39:33.046Z,1003.12
2018-12-07T05:40:33.005Z,1003.15
2018-12-07T05:41:32.786Z,1003.10
2018-12-07T05:42:32.874Z,1003.13
2018-12-07T05:43:32.578Z,1003.12
2018-12-07T05:44:33.163Z,1003.09
2018-12-07T05:45:32.805Z,1003.05
2018-12-07T05:46:32.937Z,1003.11
2018-12-07T05:47:32.438Z,1002.88
2018-12-07T05:48:32.466Z,1002.95
2018-12-07T05:49:32.593Z,1002.98
2018-12-07T05:50:30.764Z,1003.01
2018-12-07T05:51:32.556Z,1002.99
2018-12-07T05:52:30.733Z,1002.95
2018-12-07T05:53:32.993Z,1002.95
2018-12-07T05:54:33.503Z,1002.90
2018-12-07T05:55:32.505Z,1002.91
2018-12-07T05:56:32.524Z,1002.93
2018-12-07T05:57:32.612Z,1002.89
2018-12-07T05:58:32.339Z,1002.90
2018-12-07T05:59:33.058Z,1002.85
2018-12-07T06:00:32.572Z,1002.81
2018-12-07T06:01:32.427Z,1002.78
2018-12-07T06:02:32.525Z,1002.77
2018-12-07T06:03:32.457Z,1002.81
2018-12-07T06:04:32.166Z,1002.72
2018-12-07T06:05:32.348Z,1002.72
2018-12-07T06:06:30.681Z,1002.78
2018-12-07T06:07:30.658Z,1002.66
2018-12-07T06:08:32.471Z,1002.69
2018-12-07T06:09:30.743Z,1002.66
2018-12-07T06:10:32.438Z,1002.68
2018-12-07T06:11:32.952Z,1002.66
2018-12-07T06:12:32.435Z,1002.65
2018-12-07T06:13:32.632Z,1002.57
2018-12-07T06:14:32.973Z,1002.62
2018-12-07T06:15:33.002Z,1002.66
2018-12-07T06:16:32.404Z,1002.56
2018-12-07T06:17:32.933Z,1002.55
2018-12-07T06:18:32.746Z,1002.63
2018-12-07T06:19:32.371Z,1002.63
2018-12-07T06:20:32.944Z,1002.55
2018-12-07T06:21:32.900Z,1002.63
2018-12-07T06:22:32.019Z,1002.60
2018-12-07T06:23:31.941Z,1002.61
2018-12-07T06:24:32.218Z,1002.64
2018-12-07T06:25:33.029Z,1002.54
2018-12-07T06:26:32.308Z,1002.53
2018-12-07T06:27:32.320Z,1002.58
2018-12-07T06:28:32.425Z,1002.46
2018-12-07T06:29:32.271Z,1002.50
2018-12-07T06:30:32.306Z,1002.51
2018-12-07T06:31:32.993Z,1002.50
2018-12-07T06:32:36.185Z,1002.47
2018-12-07T06:33:32.961Z,1002.53
2018-12-07T06:34:31.844Z,1002.43
2018-12-07T06:35:32.199Z,1002.47
2018-12-07T06:36:32.292Z,1002.47
2018-12-07T06:37:32.128Z,1002.53
2018-12-07T06:38:33.502Z,1002.47
2018-12-07T06:39:32.204Z,1002.40
2018-12-07T06:40:32.217Z,1002.41
2018-12-07T06:41:32.899Z,1002.39
2018-12-07T06:42:32.256Z,1002.42
2018-12-07T06:43:32.387Z,1002.35
2018-12-07T06:44:32.191Z,1002.38
2018-12-07T06:45:32.096Z,1002.35
2018-12-07T06:46:32.393Z,1002.35
2018-12-07T06:47:32.501Z,1002.36
2018-12-07T06:48:32.317Z,1002.29
2018-12-07T06:49:32.266Z,1002.24
2018-12-07T06:50:32.741Z,1002.28
2018-12-07T06:51:32.520Z,1002.22
2018-12-07T06:52:30.515Z,1002.20
2018-12-07T06:53:32.343Z,1002.16
2018-12-07T06:54:32.505Z,1002.20
2018-12-07T06:55:32.336Z,1002.13
2018-12-07T06:56:31.997Z,1002.08
2018-12-07T06:57:32.000Z,1002.06
2018-12-07T06:58:32.485Z,1002.07
2018-12-07T06:59:32.471Z,1002.08
2018-12-07T07:00:32.290Z,1002.11
2018-12-07T07:01:31.690Z,1002.06
2018-12-07T07:02:32.128Z,1002.02
2018-12-07T07:03:31.961Z,1002.13
2018-12-07T07:04:31.969Z,1002.03
2018-12-07T07:05:32.018Z,1001.98
2018-12-07T07:06:33.000Z,1002.06
2018-12-07T07:07:30.489Z,1001.97
2018-12-07T07:08:33.020Z,1001.99
2018-12-07T07:09:32.319Z,1001.98
2018-12-07T07:10:31.986Z,1002.00
2018-12-07T07:11:33.001Z,1001.95
2018-12-07T07:12:32.338Z,1002.01
2018-12-07T07:13:32.073Z,1001.94
2018-12-07T07:14:32.254Z,1001.97
2018-12-07T07:15:31.972Z,1001.98
2018-12-07T07:16:31.607Z,1001.99
2018-12-07T07:17:31.676Z,1002.01
2018-12-07T07:18:32.119Z,1002.00
2018-12-07T07:19:31.743Z,1001.96
2018-12-07T07:20:31.031Z,1001.87
2018-12-07T07:21:32.536Z,1001.91
2018-12-07T07:22:32.071Z,1001.85
2018-12-07T07:23:30.324Z,1001.87
2018-12-07T07:24:32.403Z,1001.84
2018-12-07T07:25:31.577Z,1001.86
2018-12-07T07:26:30.353Z,1001.89
2018-12-07T07:27:30.393Z,1001.83
2018-12-07T07:28:32.451Z,1001.78
2018-12-07T07:29:31.805Z,1001.85
2018-12-07T07:30:32.484Z,1001.75
2018-12-07T07:31:30.276Z,1001.80
2018-12-07T07:32:32.019Z,1001.83
2018-12-07T07:33:30.274Z,1001.81
2018-12-07T07:34:31.512Z,1001.81
2018-12-07T07:35:32.006Z,1001.80
2018-12-07T07:36:30.311Z,1001.76
2018-12-07T07:37:31.570Z,1001.81
2018-12-07T07:38:33.000Z,1001.75
2018-12-07T07:39:30.253Z,1001.69
2018-12-07T07:40:32.027Z,1001.69
2018-12-07T07:41:30.214Z,1001.73
2018-12-07T07:42:32.819Z,1001.71
2018-12-07T07:43:31.568Z,1001.76
2018-12-07T07:44:32.293Z,1001.73
2018-12-07T07:45:32.450Z,1001.70
2018-12-07T07:46:30.250Z,1001.76
2018-12-07T07:47:32.363Z,1001.70
2018-12-07T07:48:31.904Z,1001.73
2018-12-07T07:49:31.511Z,1001.73
2018-12-07T07:50:32.278Z,1001.69
2018-12-07T07:51:30.204Z,1001.64
2018-12-07T07:52:31.568Z,1001.65
2018-12-07T07:53:32.294Z,1001.66
2018-12-07T07:54:31.388Z,1001.58
2018-12-07T07:55:30.149Z,1001.59
2018-12-07T07:56:33.187Z,1001.63
2018-12-07T07:57:31.850Z,1001.55
2018-12-07T07:58:32.513Z,1001.52
2018-12-07T07:59:30.135Z,1001.50
2018-12-07T08:00:31.762Z,1001.53
2018-12-07T08:01:30.140Z,1001.50
2018-12-07T08:02:31.333Z,1001.44
2018-12-07T08:03:33.810Z,1001.46
2018-12-07T08:04:31.443Z,1001.39
2018-12-07T08:05:31.972Z,1001.50
2018-12-07T08:06:31.710Z,1001.44
2018-12-07T08:07:31.339Z,1001.52
2018-12-07T08:08:32.042Z,1001.43
2018-12-07T08:09:32.373Z,1001.40
2018-12-07T08:10:31.529Z,1001.35
2018-12-07T08:11:31.452Z,1001.38
2018-12-07T08:12:31.748Z,1001.34
2018-12-07T08:13:31.536Z,1001.42
2018-12-07T08:14:31.610Z,1001.33
2018-12-07T08:15:31.798Z,1001.39
2018-12-07T08:16:31.252Z,1001.35
2018-12-07T08:17:31.570Z,1001.37
2018-12-07T08:18:31.998Z,1001.36
2018-12-07T08:19:31.599Z,1001.35
2018-12-07T08:20:32.329Z,1001.31
2018-12-07T08:21:32.321Z,1001.38
2018-12-07T08:22:31.589Z,1001.25
2018-12-07T08:23:30.023Z,1001.29
2018-12-07T08:24:30.314Z,1001.32
2018-12-07T08:25:31.418Z,1001.34
2018-12-07T08:26:33.956Z,1001.28
2018-12-07T08:27:32.521Z,1001.26
2018-12-07T08:28:31.585Z,1001.32
2018-12-07T08:29:31.518Z,1001.32
2018-12-07T08:30:32.544Z,1001.36
2018-12-07T08:31:30.095Z,1001.29
2018-12-07T08:32:29.960Z,1001.31
2018-12-07T08:33:32.053Z,1001.23
2018-12-07T08:34:30.081Z,1001.31
2018-12-07T08:35:30.192Z,1001.19
2018-12-07T08:36:29.987Z,1001.32
2018-12-07T08:37:32.517Z,1001.27
2018-12-07T08:38:30.076Z,1001.09
2018-12-07T08:39:32.185Z,1001.13
2018-12-07T08:40:31.515Z,1001.15
2018-12-07T08:41:30.024Z,1001.09
2018-12-07T08:42:29.932Z,1001.19
2018-12-07T08:43:29.931Z,1001.06
2018-12-07T08:44:30.016Z,1001.06
2018-12-07T08:45:29.921Z,1001.07
2018-12-07T08:46:34.641Z,1001.06
2018-12-07T08:47:29.990Z,1001.00
2018-12-07T08:48:31.881Z,1001.16
2018-12-07T08:49:29.939Z,1001.02
2018-12-07T08:50:31.854Z,1001.08
2018-12-07T08:51:29.963Z,1000.99
2018-12-07T08:52:32.114Z,1000.96
2018-12-07T08:53:30.251Z,1000.95
2018-12-07T08:54:29.898Z,1000.92
2018-12-07T08:55:29.864Z,1000.87
2018-12-07T08:56:32.528Z,1000.93
2018-12-07T08:57:30.114Z,1000.86
2018-12-07T08:58:30.871Z,1000.90
2018-12-07T08:59:31.987Z,1000.81
2018-12-07T09:00:29.959Z,1000.79
2018-12-07T09:01:29.936Z,1000.87
2018-12-07T09:02:31.543Z,1000.79
2018-12-07T09:03:31.537Z,1000.85
2018-12-07T09:04:31.048Z,1000.85
2018-12-07T09:05:29.870Z,1000.77
2018-12-07T09:06:31.561Z,1000.70
2018-12-07T09:07:31.376Z,1000.71
2018-12-07T09:08:31.612Z,1000.83
2018-12-07T09:09:33.957Z,1000.76
2018-12-07T09:10:32.105Z,1000.73
2018-12-07T09:11:31.524Z,1000.65
2018-12-07T09:12:32.139Z,1000.64
2018-12-07T09:13:32.040Z,1000.58
2018-12-07T09:14:31.079Z,1000.60
2018-12-07T09:15:31.975Z,1000.60
2018-12-07T09:16:29.847Z,1000.60
2018-12-07T09:17:31.512Z,1000.57
2018-12-07T09:18:31.530Z,1000.58
2018-12-07T09:19:32.004Z,1000.53
2018-12-07T09:20:32.881Z,1000.62
2018-12-07T09:21:29.735Z,1000.57
2018-12-07T09:22:34.470Z,1000.49
2018-12-07T09:23:31.822Z,1000.52
2018-12-07T09:24:29.831Z,1000.50
2018-12-07T09:25:31.536Z,1000.67
2018-12-07T09:26:29.754Z,1000.47
2018-12-07T09:27:30.580Z,1000.45
2018-12-07T09:28:29.908Z,1000.41
2018-12-07T09:29:31.421Z,1000.47
2018-12-07T09:30:29.800Z,1000.41
2018-12-07T09:31:31.528Z,1000.35
2018-12-07T09:32:31.492Z,1000.51
2018-12-07T09:33:29.698Z,1000.34
2018-12-07T09:34:31.285Z,1000.37
2018-12-07T09:35:31.694Z,1000.35
2018-12-07T09:36:29.720Z,1000.36
2018-12-07T09:37:29.732Z,1000.35
2018-12-07T09:38:30.954Z,1000.36
2018-12-07T09:39:31.524Z,1000.37
2018-12-07T09:40:31.094Z,1000.38
2018-12-07T09:41:30.990Z,1000.33
2018-12-07T09:42:31.595Z,1000.38
2018-12-07T09:43:31.049Z,1000.43
2018-12-07T09:44:31.864Z,1000.41
2018-12-07T09:45:31.192Z,1000.43
2018-12-07T09:46:32.543Z,1000.31
2018-12-07T09:47:30.864Z,1000.27
2018-12-07T09:48:32.109Z,1000.26
2018-12-07T09:49:30.928Z,1000.24
2018-12-07T09:50:33.558Z,1000.28
2018-12-07T09:51:31.105Z,1000.28
2018-12-07T09:52:31.429Z,1000.18
2018-12-07T09:53:34.394Z,1000.20
2018-12-07T09:54:37.571Z,1000.18
2018-12-07T09:55:33.454Z,1000.18
2018-12-07T09:56:31.560Z,1000.15
2018-12-07T09:57:32.215Z,1000.12
2018-12-07T09:58:31.499Z,1000.09
2018-12-07T09:59:31.513Z,1000.11
2018-12-07T10:00:32.000Z,1000.07
2018-12-07T10:01:32.037Z,1000.09
2018-12-07T10:02:31.288Z,999.98
2018-12-07T10:03:33.285Z,1000.02
2018-12-07T10:04:32.007Z,999.99
2018-12-07T10:05:31.513Z,999.97
2018-12-07T10:06:33.360Z,999.95
2018-12-07T10:07:33.388Z,999.80
2018-12-07T10:08:31.190Z,999.84
2018-12-07T10:09:31.791Z,999.78
2018-12-07T10:10:32.153Z,999.81
2018-12-07T10:11:31.716Z,999.74
2018-12-07T10:12:31.923Z,999.74
2018-12-07T10:13:31.993Z,999.62
2018-12-07T10:14:32.019Z,999.71
2018-12-07T10:15:31.539Z,999.59
2018-12-07T10:16:32.065Z,999.65
2018-12-07T10:17:32.038Z,999.67
2018-12-07T10:18:31.554Z,999.72
2018-12-07T10:19:31.506Z,999.63
2018-12-07T10:20:31.520Z,999.63
2018-12-07T10:21:31.359Z,999.55
2018-12-07T10:22:31.738Z,999.57
2018-12-07T10:23:31.407Z,999.55
2018-12-07T10:24:31.426Z,999.41
2018-12-07T10:25:31.463Z,999.45
2018-12-07T10:26:31.514Z,999.45
2018-12-07T10:27:33.886Z,999.39
2018-12-07T10:28:31.075Z,999.35
2018-12-07T10:29:31.354Z,999.42
2018-12-07T10:30:32.056Z,999.42
2018-12-07T10:31:32.048Z,999.32
2018-12-07T10:32:31.160Z,999.31
2018-12-07T10:33:31.904Z,999.48
2018-12-07T10:34:35.621Z,999.38
2018-12-07T10:35:32.086Z,999.20
2018-12-07T10:36:31.417Z,999.23
2018-12-07T10:37:31.691Z,999.15
2018-12-07T10:38:31.407Z,999.19
2018-12-07T10:39:31.353Z,999.13
2018-12-07T10:40:33.512Z,999.11
2018-12-07T10:41:32.054Z,999.05
2018-12-07T10:42:32.036Z,999.09
2018-12-07T10:43:31.662Z,999.09
2018-12-07T10:44:31.604Z,999.06
2018-12-07T10:45:31.487Z,999.04
2018-12-07T10:46:31.671Z,998.96
2018-12-07T10:47:33.025Z,999.05
2018-12-07T10:48:38.325Z,998.95
2018-12-07T10:49:31.199Z,998.91
2018-12-07T10:50:31.316Z,998.93
2018-12-07T10:51:31.348Z,998.94
2018-12-07T10:52:31.505Z,998.84
2018-12-07T10:53:31.103Z,998.85
2018-12-07T10:54:30.902Z,998.78
2018-12-07T10:55:31.344Z,998.66
2018-12-07T10:56:31.617Z,998.63
2018-12-07T10:57:31.521Z,998.71
2018-12-07T10:58:31.614Z,998.56
2018-12-07T10:59:31.026Z,998.63
2018-12-07T11:00:31.370Z,998.63
2018-12-07T11:01:31.544Z,998.47
2018-12-07T11:02:31.546Z,998.48
2018-12-07T11:03:31.534Z,998.45
2018-12-07T11:04:31.563Z,998.49
2018-12-07T11:05:32.015Z,998.53
2018-12-07T11:06:37.455Z,998.59
2018-12-07T11:07:31.263Z,998.46
2018-12-07T11:08:31.668Z,998.33
2018-12-07T11:09:31.500Z,998.37
2018-12-07T11:10:31.699Z,998.34
2018-12-07T11:11:31.923Z,998.37
2018-12-07T11:12:31.771Z,998.30
2018-12-07T11:13:32.084Z,998.33
2018-12-07T11:14:31.685Z,998.21
2018-12-07T11:15:30.445Z,998.08
2018-12-07T11:16:32.045Z,998.17
2018-12-07T11:17:30.874Z,998.16
2018-12-07T11:18:31.640Z,998.11
2018-12-07T11:19:30.419Z,998.16
2018-12-07T11:20:31.561Z,998.18
2018-12-07T11:21:32.010Z,998.12
2018-12-07T11:22:31.812Z,998.03
2018-12-07T11:23:32.092Z,998.02
2018-12-07T11:24:34.116Z,997.91
2018-12-07T11:25:31.078Z,997.95
2018-12-07T11:26:31.393Z,997.99
2018-12-07T11:27:31.698Z,997.87
2018-12-07T11:28:33.032Z,997.92
2018-12-07T11:29:36.958Z,997.89
2018-12-07T11:30:33.077Z,997.83
2018-12-07T11:31:33.551Z,997.67
2018-12-07T11:32:31.650Z,997.69
2018-12-07T11:33:31.500Z,997.65
2018-12-07T11:34:33.103Z,997.69
2018-12-07T11:35:39.900Z,997.71
2018-12-07T11:36:29.325Z,997.66
2018-12-07T11:37:34.761Z,997.66
2018-12-07T11:38:33.587Z,997.64
2018-12-07T11:39:33.106Z,997.66
2018-12-07T11:40:30.911Z,997.67
2018-12-07T11:41:32.885Z,997.82
2018-12-07T11:42:31.266Z,997.65
2018-12-07T11:43:31.114Z,997.57
2018-12-07T11:44:32.790Z,997.61
2018-12-07T11:45:29.295Z,997.52
2018-12-07T11:46:33.429Z,997.45
2018-12-07T11:47:33.105Z,997.48
2018-12-07T11:48:30.493Z,997.46
2018-12-07T11:49:31.518Z,997.34
2018-12-07T11:50:31.058Z,997.43
2018-12-07T11:51:31.510Z,997.34
2018-12-07T11:52:31.168Z,997.36
2018-12-07T11:53:31.576Z,997.35
2018-12-07T11:54:30.990Z,997.26
2018-12-07T11:55:30.610Z,997.34
2018-12-07T11:56:31.583Z,997.31
2018-12-07T11:57:31.152Z,997.25
2018-12-07T11:58:32.930Z,997.18
2018-12-07T11:59:31.312Z,997.14
2018-12-07T12:00:31.050Z,997.15
2018-12-07T12:01:31.216Z,997.10
2018-12-07T12:02:31.017Z,997.10
2018-12-07T12:03:30.934Z,997.08
2018-12-07T12:04:31.080Z,997.04
2018-12-07T12:05:31.114Z,996.90
2018-12-07T12:06:31.319Z,996.89
2018-12-07T12:07:30.434Z,996.88
2018-12-07T12:08:32.600Z,996.85
2018-12-07T12:09:31.579Z,996.75